sensor_id;sensor_type;location;lat;lon;timestamp;P1;durP1;ratioP1;P2;durP2;ratioP2
77868;SDS011;67231;59.144;37.934;2023-05-14T00:01:18;1.20;;;1.00;;
77868;SDS011;67231;59.144;37.934;2023-05-14T00:03:45;6.10;;;4.32;;
77868;SDS011;67231;59.144;37.934;2023-05-14T00:06:11;4.55;;;3.90;;
77868;SDS011;67231;59.144;37.934;2023-05-14T00:08:37;8.95;;;4.40;;
77868;SDS011;67231;59.144;37.934;2023-05-14T00:11:04;9.63;;;5.20;;
77868;SDS011;67231;59.144;37.934;2023-05-14T00:13:30;7.70;;;5.75;;
77868;SDS011;67231;59.144;37.934;2023-05-14T00:15:57;6.65;;;5.30;;
77868;SDS011;67231;59.144;37.934;2023-05-14T00:18:23;6.57;;;5.15;;
77868;SDS011;67231;59.144;37.934;2023-05-14T00:20:49;4.20;;;1.75;;
77868;SDS011;67231;59.144;37.934;2023-05-14T00:23:20;2.55;;;1.60;;
77868;SDS011;67231;59.144;37.934;2023-05-14T00:25:47;3.50;;;1.30;;
77868;SDS011;67231;59.144;37.934;2023-05-14T00:28:14;2.50;;;1.30;;
77868;SDS011;67231;59.144;37.934;2023-05-14T00:30:40;3.20;;;1.30;;
77868;SDS011;67231;59.144;37.934;2023-05-14T00:33:08;4.97;;;1.40;;
77868;SDS011;67231;59.144;37.934;2023-05-14T00:35:34;4.80;;;1.60;;
77868;SDS011;67231;59.144;37.934;2023-05-14T00:38:01;11.32;;;2.42;;
77868;SDS011;67231;59.144;37.934;2023-05-14T00:40:28;8.00;;;1.55;;
77868;SDS011;67231;59.144;37.934;2023-05-14T00:42:54;4.30;;;1.40;;
77868;SDS011;67231;59.144;37.934;2023-05-14T00:45:21;8.73;;;1.40;;
77868;SDS011;67231;59.144;37.934;2023-05-14T00:47:47;2.03;;;1.20;;
77868;SDS011;67231;59.144;37.934;2023-05-14T00:50:15;2.33;;;1.48;;
77868;SDS011;67231;59.144;37.934;2023-05-14T00:52:41;2.30;;;1.40;;
77868;SDS011;67231;59.144;37.934;2023-05-14T00:55:07;3.30;;;1.40;;
77868;SDS011;67231;59.144;37.934;2023-05-14T00:57:36;2.05;;;1.30;;
77868;SDS011;67231;59.144;37.934;2023-05-14T01:00:03;2.55;;;1.45;;
77868;SDS011;67231;59.144;37.934;2023-05-14T01:02:31;2.10;;;1.30;;
77868;SDS011;67231;59.144;37.934;2023-05-14T01:04:57;2.25;;;1.38;;
77868;SDS011;67231;59.144;37.934;2023-05-14T01:10:16;2.88;;;1.30;;
77868;SDS011;67231;59.144;37.934;2023-05-14T01:15:20;2.22;;;1.25;;
77868;SDS011;67231;59.144;37.934;2023-05-14T01:17:50;3.75;;;1.38;;
77868;SDS011;67231;59.144;37.934;2023-05-14T01:20:20;2.00;;;1.20;;
77868;SDS011;67231;59.144;37.934;2023-05-14T01:22:47;1.80;;;1.20;;
77868;SDS011;67231;59.144;37.934;2023-05-14T01:25:13;2.92;;;1.30;;
77868;SDS011;67231;59.144;37.934;2023-05-14T01:27:41;1.77;;;1.25;;
77868;SDS011;67231;59.144;37.934;2023-05-14T01:33:05;2.30;;;1.40;;
77868;SDS011;67231;59.144;37.934;2023-05-14T01:35:40;1.88;;;1.20;;
77868;SDS011;67231;59.144;37.934;2023-05-14T01:38:09;1.80;;;1.30;;
77868;SDS011;67231;59.144;37.934;2023-05-14T01:40:37;2.42;;;1.40;;
77868;SDS011;67231;59.144;37.934;2023-05-14T01:43:04;1.88;;;1.20;;
77868;SDS011;67231;59.144;37.934;2023-05-14T01:45:33;1.80;;;1.40;;
77868;SDS011;67231;59.144;37.934;2023-05-14T01:48:00;1.90;;;1.40;;
77868;SDS011;67231;59.144;37.934;2023-05-14T01:50:26;2.53;;;1.38;;
77868;SDS011;67231;59.144;37.934;2023-05-14T01:52:53;2.50;;;1.40;;
77868;SDS011;67231;59.144;37.934;2023-05-14T01:55:21;2.13;;;1.30;;
77868;SDS011;67231;59.144;37.934;2023-05-14T01:57:51;2.17;;;1.30;;
77868;SDS011;67231;59.144;37.934;2023-05-14T02:00:18;2.13;;;1.30;;
77868;SDS011;67231;59.144;37.934;2023-05-14T02:02:45;2.30;;;1.40;;
77868;SDS011;67231;59.144;37.934;2023-05-14T02:05:12;2.40;;;1.40;;
77868;SDS011;67231;59.144;37.934;2023-05-14T02:07:39;2.25;;;1.50;;
77868;SDS011;67231;59.144;37.934;2023-05-14T02:10:05;2.55;;;1.60;;
77868;SDS011;67231;59.144;37.934;2023-05-14T02:12:33;2.67;;;1.38;;
77868;SDS011;67231;59.144;37.934;2023-05-14T02:15:01;2.90;;;1.50;;
77868;SDS011;67231;59.144;37.934;2023-05-14T02:17:32;2.80;;;1.52;;
77868;SDS011;67231;59.144;37.934;2023-05-14T02:19:58;3.45;;;1.60;;
77868;SDS011;67231;59.144;37.934;2023-05-14T02:22:33;2.42;;;1.45;;
77868;SDS011;67231;59.144;37.934;2023-05-14T02:25:00;2.72;;;1.50;;
77868;SDS011;67231;59.144;37.934;2023-05-14T02:27:26;2.50;;;1.50;;
77868;SDS011;67231;59.144;37.934;2023-05-14T02:29:52;3.33;;;1.55;;
77868;SDS011;67231;59.144;37.934;2023-05-14T02:32:18;4.35;;;1.90;;
77868;SDS011;67231;59.144;37.934;2023-05-14T02:34:45;2.92;;;1.77;;
77868;SDS011;67231;59.144;37.934;2023-05-14T02:37:11;3.47;;;2.05;;
77868;SDS011;67231;59.144;37.934;2023-05-14T02:39:37;4.07;;;2.55;;
77868;SDS011;67231;59.144;37.934;2023-05-14T02:42:03;4.07;;;2.35;;
77868;SDS011;67231;59.144;37.934;2023-05-14T02:44:30;2.97;;;1.98;;
77868;SDS011;67231;59.144;37.934;2023-05-14T02:46:57;3.35;;;1.63;;
77868;SDS011;67231;59.144;37.934;2023-05-14T02:49:23;2.45;;;1.42;;
77868;SDS011;67231;59.144;37.934;2023-05-14T02:51:49;3.95;;;1.90;;
77868;SDS011;67231;59.144;37.934;2023-05-14T02:54:15;3.40;;;1.65;;
77868;SDS011;67231;59.144;37.934;2023-05-14T02:56:42;3.20;;;1.50;;
77868;SDS011;67231;59.144;37.934;2023-05-14T02:59:08;4.07;;;1.67;;
77868;SDS011;67231;59.144;37.934;2023-05-14T03:01:34;2.40;;;1.50;;
77868;SDS011;67231;59.144;37.934;2023-05-14T03:04:01;3.45;;;1.63;;
77868;SDS011;67231;59.144;37.934;2023-05-14T03:06:27;3.25;;;1.70;;
77868;SDS011;67231;59.144;37.934;2023-05-14T03:08:53;3.10;;;1.50;;
77868;SDS011;67231;59.144;37.934;2023-05-14T03:11:20;3.75;;;1.50;;
77868;SDS011;67231;59.144;37.934;2023-05-14T03:13:46;3.65;;;1.75;;
77868;SDS011;67231;59.144;37.934;2023-05-14T03:16:12;2.60;;;1.45;;
77868;SDS011;67231;59.144;37.934;2023-05-14T03:18:38;4.88;;;2.10;;
77868;SDS011;67231;59.144;37.934;2023-05-14T03:23:34;2.22;;;1.30;;
77868;SDS011;67231;59.144;37.934;2023-05-14T03:26:00;2.60;;;1.60;;
77868;SDS011;67231;59.144;37.934;2023-05-14T03:28:27;5.90;;;1.80;;
77868;SDS011;67231;59.144;37.934;2023-05-14T03:30:53;2.95;;;1.50;;
77868;SDS011;67231;59.144;37.934;2023-05-14T03:33:20;2.67;;;1.33;;
77868;SDS011;67231;59.144;37.934;2023-05-14T03:35:46;3.20;;;1.60;;
77868;SDS011;67231;59.144;37.934;2023-05-14T03:38:12;2.60;;;1.50;;
77868;SDS011;67231;59.144;37.934;2023-05-14T03:40:39;2.90;;;1.52;;
77868;SDS011;67231;59.144;37.934;2023-05-14T03:43:05;3.38;;;1.42;;
77868;SDS011;67231;59.144;37.934;2023-05-14T03:45:31;2.35;;;1.30;;
77868;SDS011;67231;59.144;37.934;2023-05-14T03:47:58;3.15;;;1.58;;
77868;SDS011;67231;59.144;37.934;2023-05-14T03:50:25;3.35;;;1.30;;
77868;SDS011;67231;59.144;37.934;2023-05-14T03:52:52;2.67;;;1.40;;
77868;SDS011;67231;59.144;37.934;2023-05-14T03:55:18;2.45;;;1.48;;
77868;SDS011;67231;59.144;37.934;2023-05-14T03:57:45;2.55;;;1.30;;
77868;SDS011;67231;59.144;37.934;2023-05-14T04:00:12;3.20;;;1.33;;
77868;SDS011;67231;59.144;37.934;2023-05-14T04:02:45;2.28;;;1.48;;
77868;SDS011;67231;59.144;37.934;2023-05-14T04:05:11;2.45;;;1.35;;
77868;SDS011;67231;59.144;37.934;2023-05-14T04:07:38;4.03;;;1.40;;
77868;SDS011;67231;59.144;37.934;2023-05-14T04:10:04;2.28;;;1.35;;
77868;SDS011;67231;59.144;37.934;2023-05-14T04:12:33;1.98;;;1.20;;
77868;SDS011;67231;59.144;37.934;2023-05-14T04:15:00;2.25;;;1.40;;
77868;SDS011;67231;59.144;37.934;2023-05-14T04:17:29;2.33;;;1.35;;
77868;SDS011;67231;59.144;37.934;2023-05-14T04:19:56;1.70;;;1.20;;
77868;SDS011;67231;59.144;37.934;2023-05-14T04:22:23;2.53;;;1.23;;
77868;SDS011;67231;59.144;37.934;2023-05-14T04:24:49;2.92;;;1.38;;
77868;SDS011;67231;59.144;37.934;2023-05-14T04:27:19;3.92;;;1.30;;
77868;SDS011;67231;59.144;37.934;2023-05-14T04:29:46;3.00;;;1.30;;
77868;SDS011;67231;59.144;37.934;2023-05-14T04:32:13;2.28;;;1.30;;
77868;SDS011;67231;59.144;37.934;2023-05-14T04:34:39;1.98;;;1.30;;
77868;SDS011;67231;59.144;37.934;2023-05-14T04:37:06;2.60;;;1.27;;
77868;SDS011;67231;59.144;37.934;2023-05-14T04:39:32;3.30;;;1.23;;
77868;SDS011;67231;59.144;37.934;2023-05-14T04:41:59;2.25;;;1.30;;
77868;SDS011;67231;59.144;37.934;2023-05-14T04:44:25;3.88;;;1.30;;
77868;SDS011;67231;59.144;37.934;2023-05-14T04:46:51;2.20;;;1.40;;
77868;SDS011;67231;59.144;37.934;2023-05-14T04:49:18;2.22;;;1.48;;
77868;SDS011;67231;59.144;37.934;2023-05-14T04:51:45;4.13;;;1.52;;
77868;SDS011;67231;59.144;37.934;2023-05-14T04:54:13;3.05;;;1.60;;
77868;SDS011;67231;59.144;37.934;2023-05-14T04:56:39;2.30;;;1.35;;
77868;SDS011;67231;59.144;37.934;2023-05-14T04:59:05;2.95;;;1.40;;
77868;SDS011;67231;59.144;37.934;2023-05-14T05:01:32;1.98;;;1.13;;
77868;SDS011;67231;59.144;37.934;2023-05-14T05:03:59;1.73;;;1.20;;
77868;SDS011;67231;59.144;37.934;2023-05-14T05:06:25;2.30;;;1.30;;
77868;SDS011;67231;59.144;37.934;2023-05-14T05:08:51;1.92;;;1.20;;
77868;SDS011;67231;59.144;37.934;2023-05-14T05:11:17;2.33;;;1.10;;
77868;SDS011;67231;59.144;37.934;2023-05-14T05:13:43;1.67;;;0.98;;
77868;SDS011;67231;59.144;37.934;2023-05-14T05:16:10;2.15;;;1.10;;
77868;SDS011;67231;59.144;37.934;2023-05-14T05:18:36;1.88;;;1.20;;
77868;SDS011;67231;59.144;37.934;2023-05-14T05:21:03;4.25;;;1.23;;
77868;SDS011;67231;59.144;37.934;2023-05-14T05:23:29;4.50;;;1.20;;
77868;SDS011;67231;59.144;37.934;2023-05-14T05:25:56;2.00;;;1.10;;
77868;SDS011;67231;59.144;37.934;2023-05-14T05:28:22;2.17;;;1.02;;
77868;SDS011;67231;59.144;37.934;2023-05-14T05:30:50;2.50;;;1.58;;
77868;SDS011;67231;59.144;37.934;2023-05-14T05:33:17;1.88;;;0.98;;
77868;SDS011;67231;59.144;37.934;2023-05-14T05:35:43;1.55;;;0.95;;
77868;SDS011;67231;59.144;37.934;2023-05-14T05:38:10;1.90;;;0.95;;
77868;SDS011;67231;59.144;37.934;2023-05-14T05:40:36;4.18;;;0.82;;
77868;SDS011;67231;59.144;37.934;2023-05-14T05:43:02;1.42;;;0.90;;
77868;SDS011;67231;59.144;37.934;2023-05-14T05:45:29;2.45;;;0.80;;
77868;SDS011;67231;59.144;37.934;2023-05-14T05:47:55;3.42;;;0.98;;
77868;SDS011;67231;59.144;37.934;2023-05-14T05:50:21;1.65;;;1.10;;
77868;SDS011;67231;59.144;37.934;2023-05-14T05:52:48;3.85;;;1.10;;
77868;SDS011;67231;59.144;37.934;2023-05-14T05:55:14;3.70;;;1.17;;
77868;SDS011;67231;59.144;37.934;2023-05-14T05:57:40;3.28;;;1.30;;
77868;SDS011;67231;59.144;37.934;2023-05-14T06:00:07;1.50;;;1.00;;
77868;SDS011;67231;59.144;37.934;2023-05-14T06:02:41;1.67;;;1.00;;
77868;SDS011;67231;59.144;37.934;2023-05-14T06:05:08;1.70;;;1.00;;
77868;SDS011;67231;59.144;37.934;2023-05-14T06:07:35;0.98;;;0.90;;
77868;SDS011;67231;59.144;37.934;2023-05-14T06:10:02;2.60;;;1.42;;
77868;SDS011;67231;59.144;37.934;2023-05-14T06:12:30;2.60;;;0.90;;
77868;SDS011;67231;59.144;37.934;2023-05-14T06:14:57;2.20;;;1.17;;
77868;SDS011;67231;59.144;37.934;2023-05-14T06:17:23;2.63;;;1.20;;
77868;SDS011;67231;59.144;37.934;2023-05-14T06:19:50;0.88;;;0.65;;
77868;SDS011;67231;59.144;37.934;2023-05-14T06:22:17;2.00;;;0.93;;
77868;SDS011;67231;59.144;37.934;2023-05-14T06:24:44;1.50;;;1.00;;
77868;SDS011;67231;59.144;37.934;2023-05-14T06:27:10;1.52;;;0.80;;
77868;SDS011;67231;59.144;37.934;2023-05-14T06:29:36;1.70;;;0.90;;
77868;SDS011;67231;59.144;37.934;2023-05-14T06:32:03;1.63;;;0.85;;
77868;SDS011;67231;59.144;37.934;2023-05-14T06:34:30;2.50;;;1.00;;
77868;SDS011;67231;59.144;37.934;2023-05-14T06:36:56;1.25;;;0.90;;
77868;SDS011;67231;59.144;37.934;2023-05-14T06:39:22;1.00;;;0.70;;
77868;SDS011;67231;59.144;37.934;2023-05-14T06:41:49;1.90;;;0.90;;
77868;SDS011;67231;59.144;37.934;2023-05-14T06:44:17;1.40;;;0.90;;
77868;SDS011;67231;59.144;37.934;2023-05-14T06:46:44;1.25;;;1.00;;
77868;SDS011;67231;59.144;37.934;2023-05-14T06:49:10;2.22;;;1.30;;
77868;SDS011;67231;59.144;37.934;2023-05-14T06:51:36;1.23;;;0.88;;
77868;SDS011;67231;59.144;37.934;2023-05-14T06:54:04;1.20;;;0.82;;
77868;SDS011;67231;59.144;37.934;2023-05-14T06:56:30;2.70;;;0.90;;
77868;SDS011;67231;59.144;37.934;2023-05-14T06:58:56;0.85;;;0.80;;
77868;SDS011;67231;59.144;37.934;2023-05-14T07:01:23;2.25;;;0.88;;
77868;SDS011;67231;59.144;37.934;2023-05-14T07:03:49;1.30;;;1.00;;
77868;SDS011;67231;59.144;37.934;2023-05-14T07:06:15;1.33;;;0.73;;
77868;SDS011;67231;59.144;37.934;2023-05-14T07:08:42;1.08;;;0.85;;
77868;SDS011;67231;59.144;37.934;2023-05-14T07:11:11;2.70;;;0.90;;
77868;SDS011;67231;59.144;37.934;2023-05-14T07:13:38;3.08;;;1.00;;
77868;SDS011;67231;59.144;37.934;2023-05-14T07:16:06;3.72;;;1.15;;
77868;SDS011;67231;59.144;37.934;2023-05-14T07:18:35;1.63;;;1.00;;
77868;SDS011;67231;59.144;37.934;2023-05-14T07:21:01;2.30;;;1.30;;
77868;SDS011;67231;59.144;37.934;2023-05-14T07:23:31;1.13;;;0.75;;
77868;SDS011;67231;59.144;37.934;2023-05-14T07:26:01;7.45;;;0.93;;
77868;SDS011;67231;59.144;37.934;2023-05-14T07:28:27;1.65;;;1.00;;
77868;SDS011;67231;59.144;37.934;2023-05-14T07:30:54;3.88;;;0.95;;
77868;SDS011;67231;59.144;37.934;2023-05-14T07:33:20;1.88;;;1.15;;
77868;SDS011;67231;59.144;37.934;2023-05-14T07:35:47;2.83;;;1.05;;
77868;SDS011;67231;59.144;37.934;2023-05-14T07:38:13;3.22;;;1.05;;
77868;SDS011;67231;59.144;37.934;2023-05-14T07:40:40;2.22;;;1.10;;
77868;SDS011;67231;59.144;37.934;2023-05-14T07:43:06;3.10;;;1.13;;
77868;SDS011;67231;59.144;37.934;2023-05-14T07:45:33;2.67;;;1.10;;
77868;SDS011;67231;59.144;37.934;2023-05-14T07:48:00;4.63;;;1.10;;
77868;SDS011;67231;59.144;37.934;2023-05-14T07:50:27;2.55;;;0.95;;
77868;SDS011;67231;59.144;37.934;2023-05-14T07:52:53;1.42;;;1.00;;
77868;SDS011;67231;59.144;37.934;2023-05-14T07:55:19;2.13;;;1.00;;
77868;SDS011;67231;59.144;37.934;2023-05-14T07:57:47;1.88;;;1.00;;
77868;SDS011;67231;59.144;37.934;2023-05-14T08:00:14;3.20;;;0.98;;
77868;SDS011;67231;59.144;37.934;2023-05-14T08:02:41;1.75;;;1.00;;
77868;SDS011;67231;59.144;37.934;2023-05-14T08:05:08;1.92;;;1.30;;
77868;SDS011;67231;59.144;37.934;2023-05-14T08:07:35;2.00;;;1.10;;
77868;SDS011;67231;59.144;37.934;2023-05-14T08:10:01;2.05;;;1.20;;
77868;SDS011;67231;59.144;37.934;2023-05-14T08:12:31;2.08;;;1.10;;
77868;SDS011;67231;59.144;37.934;2023-05-14T08:14:57;9.55;;;2.88;;
77868;SDS011;67231;59.144;37.934;2023-05-14T08:17:23;7.38;;;4.93;;
77868;SDS011;67231;59.144;37.934;2023-05-14T08:19:50;4.75;;;1.48;;
77868;SDS011;67231;59.144;37.934;2023-05-14T08:22:16;3.50;;;3.20;;
77868;SDS011;67231;59.144;37.934;2023-05-14T08:24:42;5.78;;;4.50;;
77868;SDS011;67231;59.144;37.934;2023-05-14T08:27:09;4.80;;;2.10;;
77868;SDS011;67231;59.144;37.934;2023-05-14T08:29:35;2.33;;;1.20;;
77868;SDS011;67231;59.144;37.934;2023-05-14T08:32:02;1.83;;;0.90;;
77868;SDS011;67231;59.144;37.934;2023-05-14T08:34:28;1.42;;;0.93;;
77868;SDS011;67231;59.144;37.934;2023-05-14T08:36:54;0.90;;;0.70;;
77868;SDS011;67231;59.144;37.934;2023-05-14T08:39:21;1.30;;;0.80;;
77868;SDS011;67231;59.144;37.934;2023-05-14T08:41:47;1.98;;;0.73;;
77868;SDS011;67231;59.144;37.934;2023-05-14T08:44:17;2.75;;;0.70;;
77868;SDS011;67231;59.144;37.934;2023-05-14T08:46:44;2.40;;;0.82;;
77868;SDS011;67231;59.144;37.934;2023-05-14T08:52:07;2.30;;;0.82;;
77868;SDS011;67231;59.144;37.934;2023-05-14T08:54:34;0.95;;;0.82;;
77868;SDS011;67231;59.144;37.934;2023-05-14T08:57:04;2.90;;;1.40;;
77868;SDS011;67231;59.144;37.934;2023-05-14T08:59:33;1.67;;;0.90;;
77868;SDS011;67231;59.144;37.934;2023-05-14T09:02:00;2.22;;;0.88;;
77868;SDS011;67231;59.144;37.934;2023-05-14T09:04:27;0.85;;;0.80;;
77868;SDS011;67231;59.144;37.934;2023-05-14T09:06:56;2.58;;;0.65;;
77868;SDS011;67231;59.144;37.934;2023-05-14T09:09:24;8.88;;;1.35;;
77868;SDS011;67231;59.144;37.934;2023-05-14T09:11:51;1.48;;;1.00;;
77868;SDS011;67231;59.144;37.934;2023-05-14T09:14:18;1.73;;;0.80;;
77868;SDS011;67231;59.144;37.934;2023-05-14T09:16:45;1.75;;;0.73;;
77868;SDS011;67231;59.144;37.934;2023-05-14T09:19:13;1.13;;;0.70;;
77868;SDS011;67231;59.144;37.934;2023-05-14T09:21:40;0.90;;;0.77;;
77868;SDS011;67231;59.144;37.934;2023-05-14T09:24:09;1.58;;;1.00;;
77868;SDS011;67231;59.144;37.934;2023-05-14T09:26:44;1.60;;;1.10;;
77868;SDS011;67231;59.144;37.934;2023-05-14T09:29:14;3.20;;;0.80;;
77868;SDS011;67231;59.144;37.934;2023-05-14T09:31:40;2.38;;;1.13;;
77868;SDS011;67231;59.144;37.934;2023-05-14T09:34:06;1.35;;;0.98;;
77868;SDS011;67231;59.144;37.934;2023-05-14T09:36:33;0.90;;;0.85;;
77868;SDS011;67231;59.144;37.934;2023-05-14T09:39:02;2.33;;;1.00;;
77868;SDS011;67231;59.144;37.934;2023-05-14T09:41:28;3.15;;;1.00;;
77868;SDS011;67231;59.144;37.934;2023-05-14T09:43:55;2.65;;;1.10;;
77868;SDS011;67231;59.144;37.934;2023-05-14T09:46:23;1.15;;;0.80;;
77868;SDS011;67231;59.144;37.934;2023-05-14T09:48:54;0.88;;;0.65;;
77868;SDS011;67231;59.144;37.934;2023-05-14T09:51:21;1.60;;;0.90;;
77868;SDS011;67231;59.144;37.934;2023-05-14T09:53:49;9.30;;;1.13;;
77868;SDS011;67231;59.144;37.934;2023-05-14T09:56:19;1.05;;;0.90;;
77868;SDS011;67231;59.144;37.934;2023-05-14T09:58:46;1.73;;;0.90;;
77868;SDS011;67231;59.144;37.934;2023-05-14T10:01:12;2.38;;;1.00;;
77868;SDS011;67231;59.144;37.934;2023-05-14T10:03:42;1.38;;;0.80;;
77868;SDS011;67231;59.144;37.934;2023-05-14T10:06:09;1.55;;;1.10;;
77868;SDS011;67231;59.144;37.934;2023-05-14T10:08:40;1.10;;;0.98;;
77868;SDS011;67231;59.144;37.934;2023-05-14T10:11:12;1.77;;;0.90;;
77868;SDS011;67231;59.144;37.934;2023-05-14T10:13:41;1.30;;;1.00;;
77868;SDS011;67231;59.144;37.934;2023-05-14T10:16:18;1.10;;;1.00;;
77868;SDS011;67231;59.144;37.934;2023-05-14T10:18:54;1.60;;;1.00;;
77868;SDS011;67231;59.144;37.934;2023-05-14T10:21:26;1.30;;;1.00;;
77868;SDS011;67231;59.144;37.934;2023-05-14T10:23:56;3.38;;;1.30;;
77868;SDS011;67231;59.144;37.934;2023-05-14T10:26:23;1.10;;;0.82;;
77868;SDS011;67231;59.144;37.934;2023-05-14T10:28:50;1.80;;;1.00;;
77868;SDS011;67231;59.144;37.934;2023-05-14T10:31:16;1.88;;;1.10;;
77868;SDS011;67231;59.144;37.934;2023-05-14T10:33:45;1.20;;;0.90;;
77868;SDS011;67231;59.144;37.934;2023-05-14T10:36:14;1.45;;;0.88;;
77868;SDS011;67231;59.144;37.934;2023-05-14T10:38:42;1.83;;;0.90;;
77868;SDS011;67231;59.144;37.934;2023-05-14T10:41:09;1.70;;;1.08;;
77868;SDS011;67231;59.144;37.934;2023-05-14T10:43:46;1.20;;;0.85;;
77868;SDS011;67231;59.144;37.934;2023-05-14T10:46:13;1.92;;;1.05;;
77868;SDS011;67231;59.144;37.934;2023-05-14T10:48:42;2.20;;;0.90;;
77868;SDS011;67231;59.144;37.934;2023-05-14T10:51:09;1.13;;;0.88;;
77868;SDS011;67231;59.144;37.934;2023-05-14T10:53:37;2.72;;;1.10;;
77868;SDS011;67231;59.144;37.934;2023-05-14T10:56:06;1.67;;;1.10;;
77868;SDS011;67231;59.144;37.934;2023-05-14T10:58:37;2.10;;;1.08;;
77868;SDS011;67231;59.144;37.934;2023-05-14T11:01:08;1.55;;;1.00;;
77868;SDS011;67231;59.144;37.934;2023-05-14T11:03:42;1.77;;;1.00;;
77868;SDS011;67231;59.144;37.934;2023-05-14T11:06:11;1.33;;;1.00;;
77868;SDS011;67231;59.144;37.934;2023-05-14T11:08:39;1.60;;;0.77;;
77868;SDS011;67231;59.144;37.934;2023-05-14T11:11:07;0.95;;;0.77;;
77868;SDS011;67231;59.144;37.934;2023-05-14T11:13:34;2.88;;;1.00;;
77868;SDS011;67231;59.144;37.934;2023-05-14T11:16:01;2.60;;;1.10;;
77868;SDS011;67231;59.144;37.934;2023-05-14T11:18:28;2.53;;;1.90;;
77868;SDS011;67231;59.144;37.934;2023-05-14T11:20:59;1.70;;;1.20;;
77868;SDS011;67231;59.144;37.934;2023-05-14T11:23:26;1.33;;;1.00;;
77868;SDS011;67231;59.144;37.934;2023-05-14T11:25:53;3.13;;;2.30;;
77868;SDS011;67231;59.144;37.934;2023-05-14T11:28:23;4.25;;;2.60;;
77868;SDS011;67231;59.144;37.934;2023-05-14T11:30:51;3.80;;;2.03;;
77868;SDS011;67231;59.144;37.934;2023-05-14T11:33:18;3.22;;;1.20;;
77868;SDS011;67231;59.144;37.934;2023-05-14T11:35:47;1.13;;;0.98;;
77868;SDS011;67231;59.144;37.934;2023-05-14T11:38:18;3.03;;;2.20;;
77868;SDS011;67231;59.144;37.934;2023-05-14T11:40:56;1.92;;;1.30;;
77868;SDS011;67231;59.144;37.934;2023-05-14T11:43:23;1.52;;;1.05;;
77868;SDS011;67231;59.144;37.934;2023-05-14T11:45:53;1.85;;;1.10;;
77868;SDS011;67231;59.144;37.934;2023-05-14T11:48:20;1.90;;;1.10;;
77868;SDS011;67231;59.144;37.934;2023-05-14T11:50:47;1.50;;;1.10;;
77868;SDS011;67231;59.144;37.934;2023-05-14T11:53:17;2.00;;;0.93;;
77868;SDS011;67231;59.144;37.934;2023-05-14T11:55:45;1.85;;;1.00;;
77868;SDS011;67231;59.144;37.934;2023-05-14T11:58:12;3.05;;;1.50;;
77868;SDS011;67231;59.144;37.934;2023-05-14T12:00:38;2.67;;;1.50;;
77868;SDS011;67231;59.144;37.934;2023-05-14T12:03:05;1.52;;;1.10;;
77868;SDS011;67231;59.144;37.934;2023-05-14T12:05:36;2.28;;;0.95;;
77868;SDS011;67231;59.144;37.934;2023-05-14T12:08:18;2.50;;;1.00;;
77868;SDS011;67231;59.144;37.934;2023-05-14T12:10:45;1.65;;;1.00;;
77868;SDS011;67231;59.144;37.934;2023-05-14T12:13:13;2.15;;;1.25;;
77868;SDS011;67231;59.144;37.934;2023-05-14T12:15:43;3.55;;;2.05;;
77868;SDS011;67231;59.144;37.934;2023-05-14T12:18:11;2.38;;;1.00;;
77868;SDS011;67231;59.144;37.934;2023-05-14T12:20:37;4.82;;;1.10;;
77868;SDS011;67231;59.144;37.934;2023-05-14T12:23:04;4.43;;;1.10;;
77868;SDS011;67231;59.144;37.934;2023-05-14T12:25:30;1.50;;;1.02;;
77868;SDS011;67231;59.144;37.934;2023-05-14T12:27:56;1.77;;;0.88;;
77868;SDS011;67231;59.144;37.934;2023-05-14T12:30:23;1.50;;;0.88;;
77868;SDS011;67231;59.144;37.934;2023-05-14T12:32:49;2.28;;;1.02;;
77868;SDS011;67231;59.144;37.934;2023-05-14T12:35:17;1.38;;;0.65;;
77868;SDS011;67231;59.144;37.934;2023-05-14T12:37:43;3.00;;;1.00;;
77868;SDS011;67231;59.144;37.934;2023-05-14T12:40:10;2.03;;;1.05;;
77868;SDS011;67231;59.144;37.934;2023-05-14T12:42:37;1.85;;;1.10;;
77868;SDS011;67231;59.144;37.934;2023-05-14T12:45:04;1.70;;;1.10;;
77868;SDS011;67231;59.144;37.934;2023-05-14T12:49:59;12.90;;;2.25;;
77868;SDS011;67231;59.144;37.934;2023-05-14T12:52:25;1.35;;;1.00;;
77868;SDS011;67231;59.144;37.934;2023-05-14T12:54:51;5.78;;;1.38;;
77868;SDS011;67231;59.144;37.934;2023-05-14T12:57:18;2.05;;;1.15;;
77868;SDS011;67231;59.144;37.934;2023-05-14T12:59:44;4.25;;;1.20;;
77868;SDS011;67231;59.144;37.934;2023-05-14T13:02:11;2.55;;;1.15;;
77868;SDS011;67231;59.144;37.934;2023-05-14T13:04:40;1.48;;;1.20;;
77868;SDS011;67231;59.144;37.934;2023-05-14T13:07:07;1.25;;;1.00;;
77868;SDS011;67231;59.144;37.934;2023-05-14T13:09:34;1.35;;;1.00;;
77868;SDS011;67231;59.144;37.934;2023-05-14T13:12:00;4.15;;;1.05;;
77868;SDS011;67231;59.144;37.934;2023-05-14T13:14:27;1.70;;;1.20;;
77868;SDS011;67231;59.144;37.934;2023-05-14T13:16:53;1.75;;;1.00;;
77868;SDS011;67231;59.144;37.934;2023-05-14T13:19:20;1.42;;;1.00;;
77868;SDS011;67231;59.144;37.934;2023-05-14T13:21:46;2.10;;;1.17;;
77868;SDS011;67231;59.144;37.934;2023-05-14T13:24:13;1.75;;;1.00;;
77868;SDS011;67231;59.144;37.934;2023-05-14T13:26:40;2.20;;;1.38;;
77868;SDS011;67231;59.144;37.934;2023-05-14T13:29:06;2.40;;;1.20;;
77868;SDS011;67231;59.144;37.934;2023-05-14T13:31:32;3.30;;;1.10;;
77868;SDS011;67231;59.144;37.934;2023-05-14T13:33:58;1.60;;;0.98;;
77868;SDS011;67231;59.144;37.934;2023-05-14T13:36:26;1.60;;;1.10;;
77868;SDS011;67231;59.144;37.934;2023-05-14T13:38:52;3.22;;;1.20;;
77868;SDS011;67231;59.144;37.934;2023-05-14T13:41:18;6.55;;;2.42;;
77868;SDS011;67231;59.144;37.934;2023-05-14T13:43:44;1.90;;;1.30;;
77868;SDS011;67231;59.144;37.934;2023-05-14T13:46:10;1.70;;;1.00;;
77868;SDS011;67231;59.144;37.934;2023-05-14T13:48:37;1.42;;;1.05;;
77868;SDS011;67231;59.144;37.934;2023-05-14T13:51:03;2.50;;;1.30;;
77868;SDS011;67231;59.144;37.934;2023-05-14T13:53:29;1.40;;;1.00;;
77868;SDS011;67231;59.144;37.934;2023-05-14T13:55:56;3.38;;;1.20;;
77868;SDS011;67231;59.144;37.934;2023-05-14T14:03:19;1.40;;;1.08;;
77868;SDS011;67231;59.144;37.934;2023-05-14T14:05:45;3.05;;;1.40;;
77868;SDS011;67231;59.144;37.934;2023-05-14T14:08:12;3.33;;;1.23;;
77868;SDS011;67231;59.144;37.934;2023-05-14T14:10:38;2.45;;;1.30;;
77868;SDS011;67231;59.144;37.934;2023-05-14T14:13:07;2.00;;;1.10;;
77868;SDS011;67231;59.144;37.934;2023-05-14T14:15:34;1.85;;;1.10;;
77868;SDS011;67231;59.144;37.934;2023-05-14T14:18:01;2.15;;;1.30;;
77868;SDS011;67231;59.144;37.934;2023-05-14T14:20:27;1.63;;;1.23;;
77868;SDS011;67231;59.144;37.934;2023-05-14T14:22:54;1.33;;;1.08;;
77868;SDS011;67231;59.144;37.934;2023-05-14T14:25:20;4.72;;;1.40;;
77868;SDS011;67231;59.144;37.934;2023-05-14T14:27:47;1.80;;;1.20;;
77868;SDS011;67231;59.144;37.934;2023-05-14T14:30:13;1.65;;;1.17;;
77868;SDS011;67231;59.144;37.934;2023-05-14T14:32:47;2.97;;;1.23;;
77868;SDS011;67231;59.144;37.934;2023-05-14T14:35:15;2.28;;;1.33;;
77868;SDS011;67231;59.144;37.934;2023-05-14T14:37:43;2.50;;;1.60;;
77868;SDS011;67231;59.144;37.934;2023-05-14T14:40:15;2.85;;;1.50;;
77868;SDS011;67231;59.144;37.934;2023-05-14T14:42:42;2.55;;;1.30;;
77868;SDS011;67231;59.144;37.934;2023-05-14T14:45:09;1.80;;;1.27;;
77868;SDS011;67231;59.144;37.934;2023-05-14T14:47:37;2.58;;;1.38;;
77868;SDS011;67231;59.144;37.934;2023-05-14T14:50:04;6.30;;;2.30;;
77868;SDS011;67231;59.144;37.934;2023-05-14T14:52:31;4.78;;;2.28;;
77868;SDS011;67231;59.144;37.934;2023-05-14T14:54:57;5.15;;;2.00;;